<?xml version="1.0" encoding="UTF-8" standalone="no" ?>
<gpx xmlns="http://www.topografix.com/GPX/1/1" xmlns:xsi="http://www.w3.org/2001/XMLSchema-instance" xsi:schemaLocation="http://www.topografix.com/GPX/1/1 http://www.topografix.com/GPX/1/1/gpx.xsd" version="1.1" creator="VisuGPX - https://www.visugpx.com">
  <metadata>
    <name>2019-07-07 16:45:52</name>
  </metadata>
  <trk>
    <name><![CDATA[2019-07-07 16:45:52]]></name>
    <trkseg>
      <trkpt lat="50.48331" lon="5.7038">
        <ele>131.36</ele>
        <time>2019-07-07T09:17:01Z</time>
      </trkpt>
      <trkpt lat="50.48335" lon="5.70376">
        <ele>131.36</ele>
        <time>2019-07-07T09:17:02Z</time>
      </trkpt>
      <trkpt lat="50.4835" lon="5.70365">
        <ele>133.76</ele>
        <time>2019-07-07T09:17:06Z</time>
      </trkpt>
      <trkpt lat="50.48379" lon="5.70341">
        <ele>137.13</ele>
        <time>2019-07-07T09:17:15Z</time>
      </trkpt>
      <trkpt lat="50.48409" lon="5.70317">
        <ele>140.49</ele>
        <time>2019-07-07T09:17:26Z</time>
      </trkpt>
      <trkpt lat="50.4845" lon="5.70322">
        <ele>143.37</ele>
        <time>2019-07-07T09:17:40Z</time>
      </trkpt>
      <trkpt lat="50.48495" lon="5.70334">
        <ele>146.26</ele>
        <time>2019-07-07T09:17:56Z</time>
      </trkpt>
      <trkpt lat="50.48529" lon="5.70343">
        <ele>150.1</ele>
        <time>2019-07-07T09:18:08Z</time>
      </trkpt>
      <trkpt lat="50.48551" lon="5.70343">
        <ele>152.99</ele>
        <time>2019-07-07T09:18:18Z</time>
      </trkpt>
      <trkpt lat="50.48577" lon="5.70328">
        <ele>156.35</ele>
        <time>2019-07-07T09:18:30Z</time>
      </trkpt>
      <trkpt lat="50.48604" lon="5.70316">
        <ele>159.24</ele>
        <time>2019-07-07T09:18:42Z</time>
      </trkpt>
      <trkpt lat="50.48625" lon="5.70358">
        <ele>160.68</ele>
        <time>2019-07-07T09:18:55Z</time>
      </trkpt>
      <trkpt lat="50.48634" lon="5.70403">
        <ele>164.04</ele>
        <time>2019-07-07T09:19:07Z</time>
      </trkpt>
      <trkpt lat="50.48642" lon="5.70439">
        <ele>167.41</ele>
        <time>2019-07-07T09:19:18Z</time>
      </trkpt>
      <trkpt lat="50.48653" lon="5.70474">
        <ele>170.29</ele>
        <time>2019-07-07T09:19:29Z</time>
      </trkpt>
      <trkpt lat="50.48675" lon="5.70522">
        <ele>173.66</ele>
        <time>2019-07-07T09:19:45Z</time>
      </trkpt>
      <trkpt lat="50.48699" lon="5.70564">
        <ele>177.02</ele>
        <time>2019-07-07T09:20:01Z</time>
      </trkpt>
      <trkpt lat="50.48726" lon="5.70608">
        <ele>180.38</ele>
        <time>2019-07-07T09:20:17Z</time>
      </trkpt>
      <trkpt lat="50.48755" lon="5.70653">
        <ele>183.75</ele>
        <time>2019-07-07T09:20:34Z</time>
      </trkpt>
      <trkpt lat="50.48783" lon="5.70693">
        <ele>187.11</ele>
        <time>2019-07-07T09:20:48Z</time>
      </trkpt>
      <trkpt lat="50.48806" lon="5.70727">
        <ele>190.48</ele>
        <time>2019-07-07T09:21:01Z</time>
      </trkpt>
      <trkpt lat="50.48826" lon="5.70759">
        <ele>193.84</ele>
        <time>2019-07-07T09:21:14Z</time>
      </trkpt>
      <trkpt lat="50.48846" lon="5.70774">
        <ele>197.69</ele>
        <time>2019-07-07T09:21:24Z</time>
      </trkpt>
      <trkpt lat="50.48874" lon="5.70767">
        <ele>200.57</ele>
        <time>2019-07-07T09:21:36Z</time>
      </trkpt>
      <trkpt lat="50.48906" lon="5.70749">
        <ele>203.94</ele>
        <time>2019-07-07T09:21:50Z</time>
      </trkpt>
      <trkpt lat="50.4894" lon="5.70728">
        <ele>207.3</ele>
        <time>2019-07-07T09:22:05Z</time>
      </trkpt>
      <trkpt lat="50.48978" lon="5.70698">
        <ele>208.74</ele>
        <time>2019-07-07T09:22:22Z</time>
      </trkpt>
      <trkpt lat="50.49001" lon="5.70673">
        <ele>211.63</ele>
        <time>2019-07-07T09:22:34Z</time>
      </trkpt>
      <trkpt lat="50.49025" lon="5.70645">
        <ele>214.99</ele>
        <time>2019-07-07T09:22:47Z</time>
      </trkpt>
      <trkpt lat="50.49039" lon="5.70626">
        <ele>218.36</ele>
        <time>2019-07-07T09:22:56Z</time>
      </trkpt>
      <trkpt lat="50.49055" lon="5.70602">
        <ele>221.72</ele>
        <time>2019-07-07T09:23:07Z</time>
      </trkpt>
      <trkpt lat="50.49073" lon="5.70588">
        <ele>225.09</ele>
        <time>2019-07-07T09:23:16Z</time>
      </trkpt>
      <trkpt lat="50.49092" lon="5.70569">
        <ele>227.97</ele>
        <time>2019-07-07T09:23:27Z</time>
      </trkpt>
      <trkpt lat="50.491" lon="5.70543">
        <ele>231.81</ele>
        <time>2019-07-07T09:23:36Z</time>
      </trkpt>
      <trkpt lat="50.49101" lon="5.70513">
        <ele>235.18</ele>
        <time>2019-07-07T09:23:46Z</time>
      </trkpt>
      <trkpt lat="50.49099" lon="5.70491">
        <ele>238.06</ele>
        <time>2019-07-07T09:23:53Z</time>
      </trkpt>
      <trkpt lat="50.49096" lon="5.70463">
        <ele>241.91</ele>
        <time>2019-07-07T09:24:02Z</time>
      </trkpt>
      <trkpt lat="50.49091" lon="5.70436">
        <ele>244.79</ele>
        <time>2019-07-07T09:24:11Z</time>
      </trkpt>
      <trkpt lat="50.49092" lon="5.70386">
        <ele>248.16</ele>
        <time>2019-07-07T09:24:28Z</time>
      </trkpt>
      <trkpt lat="50.49097" lon="5.70347">
        <ele>251.52</ele>
        <time>2019-07-07T09:24:40Z</time>
      </trkpt>
      <trkpt lat="50.49104" lon="5.70304">
        <ele>254.89</ele>
        <time>2019-07-07T09:24:53Z</time>
      </trkpt>
      <trkpt lat="50.49113" lon="5.70256">
        <ele>257.77</ele>
        <time>2019-07-07T09:25:08Z</time>
      </trkpt>
      <trkpt lat="50.49127" lon="5.70198">
        <ele>261.14</ele>
        <time>2019-07-07T09:25:25Z</time>
      </trkpt>
      <trkpt lat="50.49147" lon="5.7017">
        <ele>264.5</ele>
        <time>2019-07-07T09:25:37Z</time>
      </trkpt>
      <trkpt lat="50.4917" lon="5.70147">
        <ele>268.35</ele>
        <time>2019-07-07T09:25:49Z</time>
      </trkpt>
      <trkpt lat="50.49189" lon="5.70125">
        <ele>271.23</ele>
        <time>2019-07-07T09:26:00Z</time>
      </trkpt>
      <trkpt lat="50.49208" lon="5.70096">
        <ele>274.59</ele>
        <time>2019-07-07T09:26:12Z</time>
      </trkpt>
      <trkpt lat="50.49219" lon="5.70063">
        <ele>278.44</ele>
        <time>2019-07-07T09:26:23Z</time>
      </trkpt>
      <trkpt lat="50.49223" lon="5.70034">
        <ele>281.32</ele>
        <time>2019-07-07T09:26:31Z</time>
      </trkpt>
      <trkpt lat="50.49226" lon="5.70005">
        <ele>284.69</ele>
        <time>2019-07-07T09:26:39Z</time>
      </trkpt>
      <trkpt lat="50.49227" lon="5.69977">
        <ele>288.05</ele>
        <time>2019-07-07T09:26:46Z</time>
      </trkpt>
    </trkseg>
  </trk>
</gpx>